Time;durP1;ratioP1;P1;durP2;ratioP2;P2;SDS_P1;SDS_P2;PMS_P1;PMS_P2;Temp;Humidity;BMP_temperature;BMP_pressure;BME280_temperature;BME280_humidity;BME280_pressure;Samples;Min_cycle;Max_cycle;Signal;HPM_P1;HPM_P2
2023/04/18 00:02:05;;;;;;;13.23;8.20;;;;;;;18.92;78.78;96565.09;4966205;28;20077;-49
2023/04/18 00:04:34;;;;;;;12.35;7.50;;;;;;;19.18;75.57;96565.31;4964931;28;20487;-57
2023/04/18 00:07:02;;;;;;;14.15;7.57;;;;;;;19.37;72.21;96569.13;4964824;28;20054;-51
2023/04/18 00:09:31;;;;;;;14.05;7.20;;;;;;;19.36;72.84;96561.28;4962899;28;20085;-55
2023/04/18 00:12:00;;;;;;;14.93;7.95;;;;;;;19.47;71.26;96567.91;4962460;28;20819;-49
2023/04/18 00:14:28;;;;;;;12.63;7.53;;;;;;;19.33;72.23;96561.69;4969569;28;20082;-57
2023/04/18 00:16:57;;;;;;;13.80;8.15;;;;;;;19.33;72.36;96556.31;4966993;28;20090;-55
2023/04/18 00:19:27;;;;;;;12.30;7.78;;;;;;;19.49;69.48;96550.66;4964077;28;20093;-52
2023/04/18 00:21:56;;;;;;;12.67;7.60;;;;;;;19.39;69.53;96556.38;4970144;28;20089;-55
2023/04/18 00:24:25;;;;;;;16.23;8.23;;;;;;;19.26;70.34;96553.63;4966909;28;20082;-57
2023/04/18 00:26:54;;;;;;;15.48;7.85;;;;;;;19.27;69.74;96546.41;4965474;28;20066;-58
2023/04/18 00:29:22;;;;;;;15.23;7.68;;;;;;;19.28;68.96;96553.44;4963269;28;20577;-48
2023/04/18 00:31:50;;;;;;;12.40;7.15;;;;;;;18.84;75.30;96549.22;4966264;28;20090;-53
2023/04/18 00:34:19;;;;;;;10.43;6.32;;;;;;;18.82;75.53;96554.75;4963752;28;20468;-49
2023/04/18 00:36:48;;;;;;;13.70;7.75;;;;;;;19.06;73.39;96545.47;4965425;28;20523;-56
2023/04/18 00:39:17;;;;;;;14.38;8.50;;;;;;;19.01;72.61;96547.09;4968523;28;20470;-57
2023/04/18 00:41:45;;;;;;;13.55;7.82;;;;;;;19.10;71.79;96543.25;4966545;28;20094;-54
2023/04/18 00:44:13;;;;;;;16.30;8.50;;;;;;;19.18;70.74;96538.56;4962161;28;20098;-50
2023/04/18 00:46:42;;;;;;;17.65;7.65;;;;;;;19.12;71.69;96547.38;4967086;28;20085;-58
2023/04/18 00:49:11;;;;;;;14.52;8.68;;;;;;;19.15;72.68;96543.47;4967018;28;20143;-54
2023/04/18 00:51:40;;;;;;;18.88;9.38;;;;;;;19.27;70.10;96549.94;4962356;28;20675;-54
2023/04/18 00:54:11;;;;;;;14.77;9.05;;;;;;;19.33;69.18;96553.66;4966905;28;20089;-55
2023/04/18 00:56:40;;;;;;;14.15;7.53;;;;;;;18.83;71.39;96560.94;4967237;28;20542;-52
2023/04/18 00:59:09;;;;;;;21.70;9.27;;;;;;;18.80;71.13;96550.66;4968090;28;20078;-51
2023/04/18 01:01:38;;;;;;;15.98;8.55;;;;;;;18.55;76.29;96559.03;4963951;28;20471;-53
2023/04/18 01:04:08;;;;;;;24.95;9.43;;;;;;;18.72;76.06;96559.63;4963871;28;20128;-53
2023/04/18 01:06:36;;;;;;;20.77;10.73;;;;;;;18.94;72.97;96557.72;4968058;28;20713;-61
2023/04/18 01:09:05;;;;;;;18.48;10.73;;;;;;;18.63;77.70;96558.91;4966182;28;20097;-54
2023/04/18 01:11:35;;;;;;;22.25;11.20;;;;;;;18.52;80.78;96553.25;4967839;28;20042;-50
2023/04/18 01:14:04;;;;;;;20.50;11.17;;;;;;;18.90;76.95;96545.78;4966848;28;20043;-51
2023/04/18 01:16:33;;;;;;;19.48;11.05;;;;;;;18.52;78.98;96556.75;4959012;28;20512;-59
2023/04/18 01:19:02;;;;;;;22.33;11.77;;;;;;;18.30;83.48;96553.25;4967711;28;20093;-52
2023/04/18 01:21:32;;;;;;;19.02;9.27;;;;;;;18.71;78.84;96544.56;4965483;28;20581;-50
2023/04/18 01:24:08;;;;;;;21.10;11.30;;;;;;;18.63;81.39;96548.22;4973193;28;20488;-48
2023/04/18 01:26:36;;;;;;;23.77;12.70;;;;;;;18.79;78.54;96548.97;4966158;28;20150;-54
2023/04/18 01:29:05;;;;;;;22.58;12.63;;;;;;;18.57;79.98;96546.31;4962150;28;20590;-50
2023/04/18 01:31:34;;;;;;;23.50;13.45;;;;;;;18.27;79.38;96546.47;4965643;28;20090;-49
2023/04/18 01:34:03;;;;;;;22.20;13.00;;;;;;;18.52;79.06;96538.06;4965686;28;20486;-50
2023/04/18 01:36:31;;;;;;;25.05;13.57;;;;;;;18.38;79.67;96541.63;4968001;28;20085;-49
2023/04/18 01:39:00;;;;;;;24.15;12.45;;;;;;;18.80;75.75;96540.78;4963471;28;20530;-52
2023/04/18 01:41:31;;;;;;;24.67;13.73;;;;;;;18.19;83.28;96535.91;4963842;28;20093;-53
2023/04/18 01:44:00;;;;;;;25.17;12.68;;;;;;;18.26;80.22;96539.47;4965423;28;20671;-51
2023/04/18 01:46:29;;;;;;;22.63;12.02;;;;;;;18.13;82.13;96541.16;4967461;28;20094;-53
2023/04/18 01:48:59;;;;;;;12.38;7.65;;;;;;;18.09;81.13;96539.91;4964050;28;20101;-53
2023/04/18 01:51:27;;;;;;;;;;;;;;;18.31;79.61;96538.09;4962330;28;20101;-51
2023/04/18 01:53:55;;;;;;;18.70;9.07;;;;;;;18.04;82.35;96529.81;4964334;28;20402;-52
2023/04/18 01:56:24;;;;;;;23.35;13.00;;;;;;;18.39;80.09;96537.94;4963847;28;20483;-53
2023/04/18 01:58:53;;;;;;;26.48;14.80;;;;;;;17.73;87.56;96538.88;4963866;28;20090;-50
2023/04/18 02:01:22;;;;;;;24.08;13.07;;;;;;;18.07;82.64;96532.09;4957515;28;20070;-53
2023/04/18 02:03:50;;;;;;;24.70;14.80;;;;;;;18.39;77.23;96532.59;4965594;28;20108;-52
2023/04/18 02:06:19;;;;;;;23.33;12.45;;;;;;;18.35;76.27;96531.34;4967672;28;20082;-48
2023/04/18 02:08:47;;;;;;;26.80;13.98;;;;;;;18.66;71.89;96526.47;4958876;28;20091;-54
2023/04/18 02:11:15;;;;;;;23.35;12.45;;;;;;;17.83;78.75;96537.78;4962022;28;20090;-52
2023/04/18 02:13:43;;;;;;;26.75;14.13;;;;;;;18.68;71.30;96537.75;4964532;28;20518;-52
2023/04/18 02:16:13;;;;;;;28.85;14.43;;;;;;;18.38;73.45;96545.13;4953439;28;20083;-54
2023/04/18 02:18:43;;;;;;;24.15;13.85;;;;;;;18.18;76.44;96531.59;4963644;28;20094;-52
2023/04/18 02:21:12;;;;;;;28.67;13.35;;;;;;;18.62;72.05;96532.41;4963517;28;20094;-55
2023/04/18 02:23:40;;;;;;;27.02;13.93;;;;;;;18.41;73.58;96530.53;4964806;28;20085;-51
2023/04/18 02:26:08;;;;;;;24.45;12.88;;;;;;;18.79;69.98;96539.13;4961587;28;20102;-52
2023/04/18 02:28:37;;;;;;;26.95;15.70;;;;;;;18.53;72.42;96539.69;4965232;28;20098;-53
2023/04/18 02:31:13;;;;;;;18.92;9.32;;;;;;;18.49;71.94;96541.13;4965761;28;20082;-54
2023/04/18 02:33:44;;;;;;;23.13;11.02;;;;;;;18.31;73.62;96538.91;4957224;28;20539;-55
2023/04/18 02:36:12;;;;;;;25.60;13.27;;;;;;;18.27;72.27;96542.94;4965559;28;20082;-53
2023/04/18 02:38:40;;;;;;;23.92;14.32;;;;;;;18.76;69.10;96549.38;4961219;28;20109;-53
2023/04/18 02:41:13;;;;;;;21.08;11.90;;;;;;;18.84;67.42;96551.91;4961835;28;20078;-54
2023/04/18 02:43:42;;;;;;;19.45;11.18;;;;;;;18.21;73.48;96549.91;4960215;28;20554;-49
2023/04/18 02:46:10;;;;;;;16.33;7.82;;;;;;;18.18;74.05;96552.94;4962982;28;20090;-54
2023/04/18 02:48:39;;;;;;;26.77;14.57;;;;;;;18.53;70.84;96547.72;4965492;28;20094;-61
2023/04/18 02:51:09;;;;;;;19.05;11.05;;;;;;;17.61;80.31;96548.34;4961430;28;20088;-53
2023/04/18 02:53:37;;;;;;;23.48;13.50;;;;;;;17.52;81.68;96555.66;4965715;28;20535;-55
2023/04/18 02:56:07;;;;;;;28.13;16.15;;;;;;;17.31;82.38;96563.56;4964158;28;20881;-48
2023/04/18 02:58:35;;;;;;;20.60;10.15;;;;;;;17.31;85.70;96560.91;4963994;28;20082;-51
2023/04/18 03:01:04;;;;;;;19.00;11.75;;;;;;;17.05;88.30;96556.84;4963626;28;20622;-56
2023/04/18 03:03:32;;;;;;;24.20;13.80;;;;;;;17.96;77.88;96552.09;4955145;28;20094;-57
2023/04/18 03:06:00;;;;;;;22.10;11.93;;;;;;;17.47;82.38;96551.88;4963683;28;20090;-50
2023/04/18 03:08:30;;;;;;;27.20;14.82;;;;;;;17.94;77.97;96535.44;4960003;28;20286;-54
2023/04/18 03:10:58;;;;;;;24.40;12.83;;;;;;;17.63;78.02;96543.69;4962114;28;20093;-48
2023/04/18 03:13:27;;;;;;;26.23;14.45;;;;;;;17.78;75.52;96539.16;4963575;28;20752;-51
2023/04/18 03:15:55;;;;;;;27.17;13.35;;;;;;;17.57;79.36;96541.75;4959118;28;20094;-47
2023/04/18 03:18:23;;;;;;;26.80;14.02;;;;;;;17.85;74.14;96541.91;4966101;28;20519;-52
2023/04/18 03:20:52;;;;;;;24.92;12.82;;;;;;;17.99;71.63;96540.19;4964490;28;20416;-53
2023/04/18 03:23:20;;;;;;;18.25;9.90;;;;;;;17.93;71.79;96538.31;4964832;28;20093;-55
2023/04/18 03:25:50;;;;;;;25.58;13.98;;;;;;;18.01;72.65;96538.19;4961639;28;20083;-52
2023/04/18 03:28:18;;;;;;;20.38;10.75;;;;;;;17.92;72.71;96536.63;4959979;28;20130;-52
2023/04/18 03:30:47;;;;;;;30.45;12.93;;;;;;;17.62;76.99;96539.38;4959644;28;20553;-57
2023/04/18 03:33:15;;;;;;;28.90;14.70;;;;;;;17.22;83.02;96551.34;4959639;28;20082;-51
2023/04/18 03:35:44;;;;;;;24.85;13.20;;;;;;;17.82;76.11;96539.59;4956661;28;20557;-49
2023/04/18 03:38:12;;;;;;;26.40;13.20;;;;;;;17.83;73.25;96537.78;4961206;28;20090;-55
2023/04/18 03:40:43;;;;;;;30.02;13.98;;;;;;;17.44;76.70;96536.25;4958175;28;20082;-48
2023/04/18 03:43:13;;;;;;;26.90;14.30;;;;;;;17.43;78.78;96543.41;4968125;28;20535;-54
2023/04/18 03:45:42;;;;;;;20.67;11.43;;;;;;;17.25;79.98;96543.81;4962797;28;21809;-53
2023/04/18 03:48:11;;;;;;;23.55;13.10;;;;;;;17.30;79.64;96533.41;4962157;28;20078;-60
2023/04/18 03:50:39;;;;;;;23.30;12.43;;;;;;;17.10;82.82;96548.28;4958749;28;20121;-58
2023/04/18 03:53:08;;;;;;;27.05;14.77;;;;;;;17.16;83.60;96541.41;4960989;28;20090;-55
2023/04/18 03:55:36;;;;;;;27.83;14.70;;;;;;;16.75;89.67;96547.97;4958760;28;20086;-50
2023/04/18 03:58:04;;;;;;;27.88;14.18;;;;;;;16.76;92.37;96552.31;4960997;28;20104;-53
2023/04/18 04:00:34;;;;;;;29.38;15.80;;;;;;;17.06;83.87;96549.66;4952950;28;20613;-57
2023/04/18 04:03:02;;;;;;;21.63;11.73;;;;;;;16.98;84.75;96550.59;4960214;28;20504;-59
2023/04/18 04:05:31;;;;;;;29.88;14.23;;;;;;;16.85;86.52;96550.38;4963509;28;20074;-56
2023/04/18 04:07:59;;;;;;;29.52;15.57;;;;;;;16.70;87.25;96553.00;4967284;28;20089;-55
2023/04/18 04:10:27;;;;;;;29.35;17.00;;;;;;;16.85;85.03;96553.06;4968612;28;20090;-56
2023/04/18 04:12:56;;;;;;;26.20;12.95;;;;;;;16.58;89.77;96552.59;4968763;28;20090;-58
2023/04/18 04:15:24;;;;;;;27.60;14.65;;;;;;;16.92;85.08;96551.31;4965996;28;20079;-57
2023/04/18 04:17:54;;;;;;;23.70;12.60;;;;;;;16.12;99.52;96554.47;4967266;28;20502;-58
2023/04/18 04:20:23;;;;;;;18.43;9.47;;;;;;;16.45;93.65;96551.53;4969077;28;20531;-59
2023/04/18 04:22:52;;;;;;;28.17;14.85;;;;;;;16.90;83.98;96550.69;4972452;28;20097;-57
2023/04/18 04:25:22;;;;;;;23.17;12.02;;;;;;;17.02;82.67;96548.38;4969150;28;20082;-52
2023/04/18 04:27:52;;;;;;;17.45;9.13;;;;;;;16.26;97.41;96550.22;4972081;28;20090;-59
2023/04/18 04:30:21;;;;;;;20.57;8.97;;;;;;;16.28;93.43;96551.69;4972373;28;20078;-59
2023/04/18 04:32:49;;;;;;;27.65;14.88;;;;;;;16.01;100.00;96550.38;4971431;28;20517;-57
2023/04/18 04:35:21;;;;;;;19.65;10.43;;;;;;;15.86;100.00;96554.78;4969830;28;20078;-58
2023/04/18 04:37:50;;;;;;;24.30;12.13;;;;;;;16.16;99.64;96554.94;4971782;28;20090;-56
2023/04/18 04:40:18;;;;;;;27.65;13.18;;;;;;;16.14;100.00;96555.13;4971818;28;20109;-56
2023/04/18 04:42:47;;;;;;;30.10;15.30;;;;;;;16.49;91.02;96552.88;4969243;28;20108;-56
2023/04/18 04:45:16;;;;;;;30.25;15.05;;;;;;;16.76;89.42;96554.16;4971920;28;20082;-55
2023/04/18 04:47:44;;;;;;;31.02;15.50;;;;;;;16.87;85.29;96555.56;4971918;28;20554;-56
2023/04/18 04:50:14;;;;;;;28.83;16.65;;;;;;;16.84;87.81;96560.22;4970796;28;20086;-55
2023/04/18 04:52:44;;;;;;;23.77;13.38;;;;;;;16.75;88.52;96561.28;4970789;28;20086;-55
2023/04/18 04:55:12;;;;;;;28.53;14.47;;;;;;;17.03;85.40;96558.88;4970380;28;20086;-55
2023/04/18 04:57:41;;;;;;;28.58;16.88;;;;;;;16.37;93.73;96566.56;4971739;28;20086;-59
2023/04/18 05:00:12;;;;;;;20.40;11.27;;;;;;;17.16;83.97;96560.88;4971180;28;20089;-56
2023/04/18 05:02:40;;;;;;;17.58;10.60;;;;;;;16.60;90.97;96561.25;4954947;28;20074;-52
2023/04/18 05:05:09;;;;;;;31.75;15.98;;;;;;;16.94;90.07;96570.63;4971392;28;20590;-59
2023/04/18 05:07:37;;;;;;;33.60;15.57;;;;;;;17.71;78.51;96556.91;4968185;28;20081;-59
2023/04/18 05:10:09;;;;;;;27.00;15.18;;;;;;;17.45;80.46;96559.25;4970897;28;20107;-56
2023/04/18 05:12:41;;;;;;;23.92;13.35;;;;;;;17.17;80.67;96565.22;4973613;28;20135;-54
2023/04/18 05:15:11;;;;;;;26.85;14.15;;;;;;;17.15;84.81;96564.56;4970941;28;20086;-53
2023/04/18 05:17:39;;;;;;;25.90;12.93;;;;;;;17.17;87.40;96567.91;4954591;28;20063;-55
2023/04/18 05:20:09;;;;;;;31.63;14.60;;;;;;;17.58;77.14;96556.72;4970889;28;20471;-57
2023/04/18 05:22:37;;;;;;;30.23;16.80;;;;;;;17.21;82.00;96576.34;4971424;28;20089;-54
2023/04/18 05:25:08;;;;;;;30.48;18.00;;;;;;;16.81;85.52;96568.56;4970492;28;20079;-56
2023/04/18 05:27:36;;;;;;;21.00;11.15;;;;;;;16.68;88.36;96575.50;4970589;28;20435;-54
2023/04/18 05:30:05;;;;;;;28.80;14.00;;;;;;;16.61;92.77;96578.84;4970793;28;20082;-59
2023/04/18 05:32:34;;;;;;;21.85;10.20;;;;;;;16.41;94.54;96583.00;4963141;28;20090;-55
2023/04/18 05:35:02;;;;;;;30.25;13.60;;;;;;;16.91;91.68;96584.31;4968155;28;20090;-56
2023/04/18 05:37:30;;;;;;;21.55;10.45;;;;;;;16.62;92.82;96587.69;4965365;28;20093;-53
2023/04/18 05:39:59;;;;;;;22.63;15.20;;;;;;;15.87;100.00;96591.84;4968186;28;20109;-56
2023/04/18 05:42:29;;;;;;;26.15;13.98;;;;;;;17.53;87.67;96585.81;4969742;28;20107;-61
2023/04/18 05:44:58;;;;;;;28.33;16.50;;;;;;;16.94;92.68;96589.25;4971032;28;20086;-52
2023/04/18 05:47:27;;;;;;;30.75;14.88;;;;;;;17.55;87.40;96583.78;4962571;28;20082;-58
2023/04/18 05:49:55;;;;;;;20.67;11.48;;;;;;;17.86;78.44;96582.75;4970028;28;20178;-59
2023/04/18 05:52:24;;;;;;;23.33;14.25;;;;;;;16.44;96.55;96590.66;4970915;28;20089;-57
2023/04/18 05:54:53;;;;;;;31.10;18.08;;;;;;;16.64;98.75;96592.84;4971144;28;20117;-56
2023/04/18 05:57:21;;;;;;;22.15;13.25;;;;;;;16.80;97.01;96590.91;4969894;28;20086;-56
2023/04/18 05:59:51;;;;;;;25.20;15.45;;;;;;;16.96;91.68;96589.06;4976080;28;20089;-57
2023/04/18 06:02:19;;;;;;;19.10;9.70;;;;;;;17.47;87.73;96594.53;4970120;28;20826;-53
2023/04/18 06:04:48;;;;;;;26.15;14.68;;;;;;;17.46;83.70;96593.72;4970826;28;20097;-57
2023/04/18 06:07:17;;;;;;;24.77;13.30;;;;;;;17.49;83.14;96592.53;4970513;28;20090;-57
2023/04/18 06:09:45;;;;;;;21.55;11.43;;;;;;;16.75;93.32;96595.91;4969957;28;20094;-55
2023/04/18 06:12:13;;;;;;;27.48;15.93;;;;;;;16.76;95.54;96604.75;4969583;28;20094;-59
2023/04/18 06:14:42;;;;;;;26.98;14.07;;;;;;;17.89;83.55;96603.72;4969457;28;20083;-54
2023/04/18 06:17:12;;;;;;;24.15;12.90;;;;;;;16.76;91.94;96605.59;4969909;28;20175;-55
2023/04/18 06:19:40;;;;;;;;;;;;;;;17.03;93.11;96609.50;4969943;28;20094;-60
2023/04/18 06:22:09;;;;;;;24.75;12.50;;;;;;;17.09;88.99;96616.75;4970429;28;19961;-57
2023/04/18 06:24:37;;;;;;;12.98;7.60;;;;;;;17.16;90.15;96611.53;4970606;28;20085;-56
2023/04/18 06:27:06;;;;;;;23.85;12.98;;;;;;;17.15;87.87;96615.22;4969705;28;20082;-58
2023/04/18 06:29:42;;;;;;;27.73;15.95;;;;;;;17.32;89.33;96622.03;4970092;28;20513;-57
2023/04/18 06:32:12;;;;;;;31.63;14.43;;;;;;;17.66;82.74;96615.31;4968235;28;20582;-54
2023/04/18 06:34:40;;;;;;;28.20;14.90;;;;;;;17.55;82.40;96619.28;4970535;28;20082;-59
2023/04/18 06:37:08;;;;;;;21.52;12.35;;;;;;;16.99;85.56;96621.50;4969420;28;20097;-52
2023/04/18 06:39:37;;;;;;;22.30;10.98;;;;;;;17.80;78.44;96624.34;4968874;28;20097;-57
2023/04/18 06:42:05;;;;;;;23.13;11.98;;;;;;;17.72;79.90;96621.72;4970979;28;20094;-58
2023/04/18 06:44:34;;;;;;;25.80;13.13;;;;;;;18.40;71.77;96620.50;4969977;28;20082;-59
2023/04/18 06:47:03;;;;;;;24.35;15.32;;;;;;;17.43;79.79;96617.25;4964245;28;20479;-55
2023/04/18 06:49:32;;;;;;;27.35;13.73;;;;;;;18.66;74.18;96600.44;4968765;28;20469;-56
2023/04/18 06:52:01;;;;;;;26.15;15.30;;;;;;;18.17;71.25;96614.50;4969744;28;20086;-52
2023/04/18 06:54:29;;;;;;;26.65;13.23;;;;;;;18.60;71.02;96604.69;4969504;28;20490;-56
2023/04/18 06:56:57;;;;;;;25.13;11.30;;;;;;;18.84;69.46;96614.19;4970106;28;20087;-55
2023/04/18 06:59:25;;;;;;;28.35;15.30;;;;;;;18.28;74.42;96622.03;4969052;28;20565;-59
2023/04/18 07:01:54;;;;;;;22.73;12.88;;;;;;;18.69;69.43;96611.56;4967168;28;20623;-57
2023/04/18 07:04:22;;;;;;;18.95;11.32;;;;;;;19.34;66.85;96611.44;4969770;28;20086;-59
2023/04/18 07:06:52;;;;;;;23.02;13.10;;;;;;;18.84;70.67;96608.84;4968307;28;20093;-57
2023/04/18 07:09:21;;;;;;;31.30;15.82;;;;;;;18.07;79.07;96617.50;4969806;28;20541;-56
2023/04/18 07:11:51;;;;;;;26.80;14.43;;;;;;;18.72;70.28;96610.38;4969480;28;20085;-57
2023/04/18 07:14:22;;;;;;;26.20;13.25;;;;;;;19.02;70.50;96610.22;4968964;28;20097;-57
2023/04/18 07:16:50;;;;;;;24.92;13.55;;;;;;;19.24;66.96;96609.16;4969879;28;20086;-53
2023/04/18 07:19:19;;;;;;;18.05;9.68;;;;;;;19.67;65.38;96606.34;4968861;28;20491;-59
2023/04/18 07:21:47;;;;;;;18.38;11.32;;;;;;;18.51;73.95;96621.84;4974242;28;20526;-57
2023/04/18 07:24:17;;;;;;;19.15;8.98;;;;;;;18.16;76.54;96616.34;4969050;28;20090;-55
2023/04/18 07:26:45;;;;;;;23.30;12.13;;;;;;;18.16;74.79;96624.34;4968638;28;20083;-59
2023/04/18 07:29:13;;;;;;;30.90;16.08;;;;;;;18.73;72.33;96620.06;4968807;28;20086;-56
2023/04/18 07:31:41;;;;;;;21.52;14.13;;;;;;;18.02;73.28;96622.56;4969222;28;20078;-54
2023/04/18 07:34:10;;;;;;;17.23;9.77;;;;;;;18.29;77.02;96630.88;4968962;28;20098;-57
2023/04/18 07:36:39;;;;;;;22.55;12.20;;;;;;;19.04;69.10;96616.19;4970034;28;20070;-56
2023/04/18 07:39:07;;;;;;;18.20;9.95;;;;;;;19.19;66.12;96632.97;4967708;28;20074;-60
2023/04/18 07:41:37;;;;;;;22.25;11.40;;;;;;;19.48;65.10;96621.25;4967104;28;20103;-54
2023/04/18 07:44:05;;;;;;;23.13;12.57;;;;;;;19.11;65.43;96636.59;4970599;28;20482;-57
2023/04/18 07:46:33;;;;;;;25.80;12.63;;;;;;;19.42;65.51;96622.84;4969484;28;20105;-53
2023/04/18 07:49:02;;;;;;;23.20;12.77;;;;;;;20.53;59.13;96628.09;4969010;28;20535;-60
2023/04/18 07:51:31;;;;;;;27.50;13.23;;;;;;;19.69;63.16;96631.06;4971523;28;20085;-54
2023/04/18 07:53:59;;;;;;;21.33;10.88;;;;;;;19.98;60.19;96629.94;4973549;28;20089;-57
2023/04/18 07:56:41;;;;;;;18.45;9.13;;;;;;;19.79;61.10;96628.84;4970192;28;20086;-59
2023/04/18 07:59:12;;;;;;;16.58;9.60;;;;;;;20.26;60.21;96629.03;4974972;28;20042;-55
2023/04/18 08:01:41;;;;;;;17.50;10.25;;;;;;;19.84;62.04;96639.78;4968802;28;20087;-60
2023/04/18 08:04:09;;;;;;;22.70;12.25;;;;;;;21.30;55.42;96632.06;4972418;28;20492;-54
2023/04/18 08:06:38;;;;;;;22.63;14.27;;;;;;;20.17;59.16;96633.75;4968540;28;20082;-59
2023/04/18 08:09:07;;;;;;;19.15;11.18;;;;;;;21.15;54.57;96636.81;4971449;28;20074;-54
2023/04/18 08:11:35;;;;;;;19.30;11.27;;;;;;;20.27;57.51;96638.72;4972522;28;20484;-58
2023/04/18 08:14:03;;;;;;;19.35;9.20;;;;;;;20.52;56.66;96633.66;4971979;28;20078;-57
2023/04/18 08:16:33;;;;;;;20.75;12.30;;;;;;;20.92;55.61;96637.25;4972502;28;20527;-57
2023/04/18 08:19:01;;;;;;;18.97;11.30;;;;;;;20.49;57.08;96639.41;4972301;28;20086;-53
2023/04/18 08:21:29;;;;;;;23.08;13.68;;;;;;;20.15;59.77;96649.19;4972096;28;20097;-56
2023/04/18 08:23:58;;;;;;;24.85;13.05;;;;;;;21.03;54.94;96636.63;4972296;28;20097;-57
2023/04/18 08:26:27;;;;;;;23.50;12.68;;;;;;;21.74;53.25;96637.78;4972301;28;20093;-57
2023/04/18 08:28:55;;;;;;;17.33;9.65;;;;;;;20.57;56.44;96633.88;4972238;28;20472;-57
2023/04/18 08:31:23;;;;;;;20.25;10.80;;;;;;;20.91;55.36;96635.56;4971003;28;20078;-57
2023/04/18 08:33:53;;;;;;;96.32;39.85;;;;;;;22.55;49.92;96629.22;4972620;28;20070;-56
2023/04/18 08:36:23;;;;;;;23.55;12.13;;;;;;;21.40;54.06;96642.38;4972358;28;20082;-60
2023/04/18 08:38:52;;;;;;;22.23;11.70;;;;;;;21.08;54.38;96647.53;4952713;28;20557;-59
2023/04/18 08:41:22;;;;;;;20.77;11.57;;;;;;;20.79;56.67;96643.41;4954213;28;20082;-59
2023/04/18 08:43:50;;;;;;;21.40;10.52;;;;;;;20.32;58.49;96652.31;4975140;28;20094;-60
2023/04/18 08:46:18;;;;;;;18.55;10.27;;;;;;;20.18;60.11;96650.63;4971803;28;20094;-54
2023/04/18 08:48:50;;;;;;;22.88;12.55;;;;;;;20.59;58.76;96659.44;4970837;28;20097;-59
2023/04/18 08:51:20;;;;;;;21.40;10.90;;;;;;;20.76;56.42;96645.66;4971673;28;20107;-55
2023/04/18 08:53:49;;;;;;;19.88;11.45;;;;;;;20.86;55.01;96648.78;4972021;28;20469;-59
2023/04/18 08:56:21;;;;;;;19.73;11.43;;;;;;;21.17;52.59;96650.84;4971817;28;20115;-58
2023/04/18 08:58:49;;;;;;;19.45;9.02;;;;;;;21.22;53.70;96652.91;4971476;28;20078;-58
2023/04/18 09:01:17;;;;;;;20.17;11.35;;;;;;;21.14;54.19;96661.16;4970716;28;20086;-59
2023/04/18 09:03:46;;;;;;;18.80;10.00;;;;;;;21.94;51.65;96654.66;4972039;28;20074;-54
2023/04/18 09:06:17;;;;;;;21.35;13.50;;;;;;;21.01;51.78;96667.34;4970176;28;20090;-57
2023/04/18 09:08:57;;;;;;;12.18;6.00;;;;;;;21.40;51.97;96661.16;4971212;28;20085;-56
2023/04/18 09:11:27;;;;;;;15.05;8.48;;;;;;;21.32;53.22;96656.00;4971544;28;20484;-57
2023/04/18 09:13:57;;;;;;;19.30;10.90;;;;;;;22.28;50.26;96650.84;4965881;28;20055;-54
2023/04/18 09:16:45;;;;;;;17.95;10.90;;;;;;;21.68;52.05;96660.09;4971952;28;20105;-56
2023/04/18 09:19:17;;;;;;;17.73;9.30;;;;;;;21.71;50.35;96659.69;4968283;28;20090;-57
2023/04/18 09:21:47;;;;;;;16.70;9.27;;;;;;;22.39;49.28;96652.03;4967804;28;20086;-57
2023/04/18 09:24:22;;;;;;;14.25;8.23;;;;;;;22.46;49.32;96658.19;4971349;28;20086;-59
2023/04/18 09:26:52;;;;;;;19.27;11.25;;;;;;;23.07;48.35;96653.31;4970527;28;20086;-59
2023/04/18 09:29:22;;;;;;;17.08;9.45;;;;;;;21.94;51.15;96662.72;4970837;28;20082;-56
2023/04/18 09:31:56;;;;;;;13.57;6.80;;;;;;;21.44;51.33;96670.47;4970876;28;20086;-54
2023/04/18 09:34:25;;;;;;;15.68;10.20;;;;;;;21.74;51.45;96667.31;4966858;28;20087;-59
2023/04/18 09:37:07;;;;;;;16.65;8.43;;;;;;;21.94;50.67;96662.72;4965236;28;20090;-53
2023/04/18 09:39:37;;;;;;;18.65;10.43;;;;;;;21.97;50.45;96664.16;4966139;28;20078;-58
2023/04/18 09:42:06;;;;;;;14.88;9.40;;;;;;;22.09;49.14;96661.63;4972489;28;20079;-57
2023/04/18 09:44:35;;;;;;;17.83;9.65;;;;;;;22.91;47.08;96654.63;4972132;28;20090;-59
2023/04/18 09:47:03;;;;;;;12.35;6.53;;;;;;;22.71;47.53;96649.38;4970826;28;20093;-53
2023/04/18 09:49:32;;;;;;;15.13;9.25;;;;;;;22.30;49.14;96665.91;4970937;28;20097;-55
2023/04/18 09:52:03;;;;;;;16.23;9.02;;;;;;;22.45;47.53;96656.56;4971212;28;20086;-59
2023/04/18 09:54:33;;;;;;;16.42;8.65;;;;;;;21.54;49.88;96668.19;4970391;28;20089;-53
2023/04/18 09:57:03;;;;;;;16.30;8.93;;;;;;;22.74;48.69;96660.50;4969671;28;20089;-56
2023/04/18 09:59:41;;;;;;;10.50;5.18;;;;;;;21.97;50.29;96661.47;4970139;28;21068;-57
2023/04/18 10:02:15;;;;;;;14.23;8.60;;;;;;;22.87;47.83;96651.53;4970629;28;20535;-59
2023/04/18 10:04:44;;;;;;;12.68;7.68;;;;;;;22.47;48.29;96657.19;4970567;28;20098;-56
2023/04/18 10:07:13;;;;;;;13.77;6.57;;;;;;;21.48;50.44;96668.19;4970999;28;20078;-57
2023/04/18 10:09:44;;;;;;;16.73;10.00;;;;;;;21.58;51.27;96662.41;4969551;28;20086;-59
2023/04/18 10:12:20;;;;;;;12.52;7.45;;;;;;;22.40;49.63;96652.84;4949740;28;20544;-57
2023/04/18 10:14:52;;;;;;;15.00;8.77;;;;;;;22.94;47.79;96640.78;4970967;28;20082;-60
2023/04/18 10:17:22;;;;;;;13.10;7.78;;;;;;;23.34;46.22;96641.28;4971918;28;20049;-57
2023/04/18 10:20:06;;;;;;;14.25;8.98;;;;;;;24.06;45.01;96641.59;4966025;28;20086;-56
2023/04/18 10:22:35;;;;;;;12.90;7.32;;;;;;;24.17;44.75;96648.09;4969795;28;20119;-55
2023/04/18 10:25:05;;;;;;;16.15;10.05;;;;;;;23.23;45.03;96650.06;4970425;28;20077;-56
2023/04/18 10:28:00;;;;;;;13.63;7.97;;;;;;;23.25;46.13;96649.84;4969878;28;20074;-57
2023/04/18 10:30:53;;;;;;;13.85;8.05;;;;;;;23.26;46.24;96648.78;4965168;28;20070;-55
2023/04/18 10:33:24;;;;;;;14.38;8.50;;;;;;;22.44;47.21;96649.53;4969564;28;20147;-53
2023/04/18 10:36:05;;;;;;;16.50;8.82;;;;;;;22.71;47.80;96644.00;4964471;28;20093;-60
2023/04/18 10:38:34;;;;;;;14.68;7.93;;;;;;;22.07;48.86;96647.63;4966871;28;20086;-53
2023/04/18 10:41:16;;;;;;;11.48;7.35;;;;;;;22.60;47.58;96645.50;4970203;28;20681;-56
2023/04/18 10:44:21;;;;;;;13.10;7.70;;;;;;;22.94;45.80;96644.28;4973561;28;20480;-53
2023/04/18 10:47:20;;;;;;;15.73;9.95;;;;;;;22.23;47.96;96650.69;4974311;28;20097;-57
2023/04/18 10:49:57;;;;;;;13.20;7.75;;;;;;;21.37;51.02;96642.84;4970480;28;20085;-55
2023/04/18 10:52:25;;;;;;;15.77;6.82;;;;;;;21.84;50.00;96643.53;4965822;28;20070;-56
2023/04/18 10:55:01;;;;;;;13.65;7.55;;;;;;;21.33;51.67;96644.22;4967136;28;20074;-57
2023/04/18 10:57:37;;;;;;;13.93;7.50;;;;;;;21.93;50.68;96647.66;4971083;28;20082;-60
2023/04/18 11:00:11;;;;;;;13.50;7.85;;;;;;;22.48;49.34;96634.63;4970862;28;20042;-56
2023/04/18 11:02:47;;;;;;;11.75;7.22;;;;;;;22.35;49.17;96636.56;4964607;28;20054;-56
2023/04/18 11:05:21;;;;;;;13.88;9.05;;;;;;;21.90;49.19;96637.34;4968889;28;20082;-52
2023/04/18 11:07:49;;;;;;;15.13;8.02;;;;;;;22.34;48.40;96626.88;4969874;28;20809;-60
2023/04/18 11:10:19;;;;;;;13.48;6.28;;;;;;;22.35;48.72;96626.63;4969391;28;20078;-58
2023/04/18 11:12:48;;;;;;;12.75;7.78;;;;;;;23.07;47.62;96629.91;4969434;28;20491;-57
2023/04/18 11:15:20;;;;;;;12.48;7.85;;;;;;;23.59;45.65;96618.88;4969820;28;20078;-57
2023/04/18 11:17:57;;;;;;;10.93;6.07;;;;;;;22.95;46.03;96628.97;4969581;28;20086;-56
2023/04/18 11:20:25;;;;;;;14.23;8.18;;;;;;;22.84;46.95;96625.09;4967991;28;20087;-54
2023/04/18 11:22:55;;;;;;;11.40;6.78;;;;;;;22.64;46.45;96619.00;4969073;28;20075;-58
2023/04/18 11:25:26;;;;;;;13.70;7.30;;;;;;;22.46;47.35;96622.44;4969185;28;20074;-52
2023/04/18 11:27:55;;;;;;;12.93;7.25;;;;;;;23.32;45.43;96618.31;4971890;28;20089;-59
2023/04/18 11:30:24;;;;;;;16.20;7.38;;;;;;;23.81;44.31;96617.44;4973252;28;20596;-55
2023/04/18 11:32:53;;;;;;;11.05;6.75;;;;;;;23.67;45.03;96616.75;4974857;28;20483;-55